sensor_id;sensor_type;location;lat;lon;timestamp;P1;durP1;ratioP1;P2;durP2;ratioP2
9364;SDS011;4722;49.340;9.800;2024-03-02T00:01:58;23.02;;;7.00;;
9364;SDS011;4722;49.340;9.800;2024-03-02T00:04:24;15.30;;;6.47;;
9364;SDS011;4722;49.340;9.800;2024-03-02T00:06:51;11.50;;;6.78;;
9364;SDS011;4722;49.340;9.800;2024-03-02T00:09:19;16.77;;;6.78;;
9364;SDS011;4722;49.340;9.800;2024-03-02T00:11:45;12.75;;;7.30;;
9364;SDS011;4722;49.340;9.800;2024-03-02T00:14:11;14.05;;;7.53;;
9364;SDS011;4722;49.340;9.800;2024-03-02T00:16:37;14.40;;;6.60;;
9364;SDS011;4722;49.340;9.800;2024-03-02T00:19:04;13.70;;;6.60;;
9364;SDS011;4722;49.340;9.800;2024-03-02T00:21:31;15.27;;;6.50;;
9364;SDS011;4722;49.340;9.800;2024-03-02T00:23:57;16.98;;;6.97;;
9364;SDS011;4722;49.340;9.800;2024-03-02T00:26:23;14.55;;;6.13;;
9364;SDS011;4722;49.340;9.800;2024-03-02T00:28:49;16.77;;;6.75;;
9364;SDS011;4722;49.340;9.800;2024-03-02T00:31:16;16.17;;;7.03;;
9364;SDS011;4722;49.340;9.800;2024-03-02T00:33:46;12.85;;;6.55;;
9364;SDS011;4722;49.340;9.800;2024-03-02T00:36:15;13.68;;;7.03;;
9364;SDS011;4722;49.340;9.800;2024-03-02T00:38:49;14.13;;;6.22;;
9364;SDS011;4722;49.340;9.800;2024-03-02T00:41:16;19.58;;;6.72;;
9364;SDS011;4722;49.340;9.800;2024-03-02T00:43:43;13.90;;;6.32;;
9364;SDS011;4722;49.340;9.800;2024-03-02T00:46:11;16.33;;;6.93;;
9364;SDS011;4722;49.340;9.800;2024-03-02T00:48:38;17.90;;;8.05;;
9364;SDS011;4722;49.340;9.800;2024-03-02T00:51:05;18.48;;;7.53;;
9364;SDS011;4722;49.340;9.800;2024-03-02T00:53:31;16.15;;;5.40;;
9364;SDS011;4722;49.340;9.800;2024-03-02T00:55:58;15.43;;;7.90;;
9364;SDS011;4722;49.340;9.800;2024-03-02T00:58:24;16.88;;;7.50;;
9364;SDS011;4722;49.340;9.800;2024-03-02T01:00:50;17.40;;;7.10;;
9364;SDS011;4722;49.340;9.800;2024-03-02T01:03:16;21.17;;;7.93;;
9364;SDS011;4722;49.340;9.800;2024-03-02T01:05:44;13.48;;;7.22;;
9364;SDS011;4722;49.340;9.800;2024-03-02T01:08:10;23.15;;;7.88;;
9364;SDS011;4722;49.340;9.800;2024-03-02T01:10:36;14.68;;;7.10;;
9364;SDS011;4722;49.340;9.800;2024-03-02T01:13:02;18.08;;;7.30;;
9364;SDS011;4722;49.340;9.800;2024-03-02T01:15:28;15.73;;;6.78;;
9364;SDS011;4722;49.340;9.800;2024-03-02T01:17:54;16.95;;;6.93;;
9364;SDS011;4722;49.340;9.800;2024-03-02T01:20:20;11.15;;;6.03;;
9364;SDS011;4722;49.340;9.800;2024-03-02T01:22:46;11.98;;;5.82;;
9364;SDS011;4722;49.340;9.800;2024-03-02T01:25:12;18.17;;;6.80;;
9364;SDS011;4722;49.340;9.800;2024-03-02T01:27:38;21.92;;;8.25;;
9364;SDS011;4722;49.340;9.800;2024-03-02T01:30:05;16.10;;;7.32;;
9364;SDS011;4722;49.340;9.800;2024-03-02T01:32:31;16.80;;;6.05;;
9364;SDS011;4722;49.340;9.800;2024-03-02T01:34:57;16.98;;;7.45;;
9364;SDS011;4722;49.340;9.800;2024-03-02T01:37:23;17.05;;;7.53;;
9364;SDS011;4722;49.340;9.800;2024-03-02T01:39:48;14.27;;;6.68;;
9364;SDS011;4722;49.340;9.800;2024-03-02T01:42:15;14.60;;;6.95;;
9364;SDS011;4722;49.340;9.800;2024-03-02T01:44:41;17.10;;;7.30;;
9364;SDS011;4722;49.340;9.800;2024-03-02T01:47:07;14.25;;;6.82;;
9364;SDS011;4722;49.340;9.800;2024-03-02T01:49:33;16.65;;;7.75;;
9364;SDS011;4722;49.340;9.800;2024-03-02T01:51:59;20.50;;;8.00;;
9364;SDS011;4722;49.340;9.800;2024-03-02T01:54:25;14.65;;;7.20;;
9364;SDS011;4722;49.340;9.800;2024-03-02T01:56:51;18.25;;;7.72;;
9364;SDS011;4722;49.340;9.800;2024-03-02T01:59:17;19.00;;;6.85;;
9364;SDS011;4722;49.340;9.800;2024-03-02T02:01:43;18.63;;;7.20;;
9364;SDS011;4722;49.340;9.800;2024-03-02T02:04:09;14.80;;;6.90;;
9364;SDS011;4722;49.340;9.800;2024-03-02T02:06:35;16.70;;;6.47;;
9364;SDS011;4722;49.340;9.800;2024-03-02T02:09:01;15.68;;;7.07;;
9364;SDS011;4722;49.340;9.800;2024-03-02T02:11:27;13.40;;;6.88;;
9364;SDS011;4722;49.340;9.800;2024-03-02T02:13:53;15.70;;;7.10;;
9364;SDS011;4722;49.340;9.800;2024-03-02T02:16:20;14.90;;;8.27;;
9364;SDS011;4722;49.340;9.800;2024-03-02T02:18:46;14.52;;;7.93;;
9364;SDS011;4722;49.340;9.800;2024-03-02T02:21:12;13.73;;;6.97;;
9364;SDS011;4722;49.340;9.800;2024-03-02T02:23:38;20.17;;;8.07;;
9364;SDS011;4722;49.340;9.800;2024-03-02T02:26:05;19.50;;;6.00;;
9364;SDS011;4722;49.340;9.800;2024-03-02T02:28:31;20.00;;;8.93;;
9364;SDS011;4722;49.340;9.800;2024-03-02T02:30:56;19.15;;;8.30;;
9364;SDS011;4722;49.340;9.800;2024-03-02T02:33:25;13.35;;;7.35;;
9364;SDS011;4722;49.340;9.800;2024-03-02T02:35:50;16.63;;;7.32;;
9364;SDS011;4722;49.340;9.800;2024-03-02T02:38:16;17.05;;;6.70;;
9364;SDS011;4722;49.340;9.800;2024-03-02T02:40:44;14.98;;;7.05;;
9364;SDS011;4722;49.340;9.800;2024-03-02T02:43:10;24.80;;;10.13;;
9364;SDS011;4722;49.340;9.800;2024-03-02T02:45:36;37.53;;;16.38;;
9364;SDS011;4722;49.340;9.800;2024-03-02T02:48:02;29.60;;;12.25;;
9364;SDS011;4722;49.340;9.800;2024-03-02T02:50:29;39.15;;;13.00;;
9364;SDS011;4722;49.340;9.800;2024-03-02T02:52:55;23.52;;;10.05;;
9364;SDS011;4722;49.340;9.800;2024-03-02T02:55:21;23.80;;;9.43;;
9364;SDS011;4722;49.340;9.800;2024-03-02T02:57:46;16.65;;;8.45;;
9364;SDS011;4722;49.340;9.800;2024-03-02T03:00:13;24.92;;;11.95;;
9364;SDS011;4722;49.340;9.800;2024-03-02T03:02:42;25.40;;;12.07;;
9364;SDS011;4722;49.340;9.800;2024-03-02T03:05:09;21.48;;;9.70;;
9364;SDS011;4722;49.340;9.800;2024-03-02T03:07:35;25.52;;;9.85;;
9364;SDS011;4722;49.340;9.800;2024-03-02T03:10:02;20.80;;;8.60;;
9364;SDS011;4722;49.340;9.800;2024-03-02T03:12:29;27.15;;;11.45;;
9364;SDS011;4722;49.340;9.800;2024-03-02T03:14:55;23.63;;;9.77;;
9364;SDS011;4722;49.340;9.800;2024-03-02T03:17:21;22.17;;;8.50;;
9364;SDS011;4722;49.340;9.800;2024-03-02T03:19:47;24.67;;;9.35;;
9364;SDS011;4722;49.340;9.800;2024-03-02T03:22:13;21.33;;;9.10;;
9364;SDS011;4722;49.340;9.800;2024-03-02T03:24:39;20.33;;;7.97;;
9364;SDS011;4722;49.340;9.800;2024-03-02T03:27:05;21.40;;;9.02;;
9364;SDS011;4722;49.340;9.800;2024-03-02T03:29:31;22.92;;;8.82;;
9364;SDS011;4722;49.340;9.800;2024-03-02T03:31:57;18.02;;;9.15;;
9364;SDS011;4722;49.340;9.800;2024-03-02T03:34:23;16.35;;;6.93;;
9364;SDS011;4722;49.340;9.800;2024-03-02T03:36:49;20.55;;;8.82;;
9364;SDS011;4722;49.340;9.800;2024-03-02T03:39:15;15.02;;;7.47;;
9364;SDS011;4722;49.340;9.800;2024-03-02T03:41:42;15.38;;;8.45;;
9364;SDS011;4722;49.340;9.800;2024-03-02T03:44:08;22.52;;;6.85;;
9364;SDS011;4722;49.340;9.800;2024-03-02T03:46:34;13.90;;;7.25;;
9364;SDS011;4722;49.340;9.800;2024-03-02T03:49:00;16.67;;;7.35;;
9364;SDS011;4722;49.340;9.800;2024-03-02T03:51:26;20.08;;;7.95;;
9364;SDS011;4722;49.340;9.800;2024-03-02T03:53:52;16.77;;;6.55;;
9364;SDS011;4722;49.340;9.800;2024-03-02T03:56:18;15.95;;;7.93;;
9364;SDS011;4722;49.340;9.800;2024-03-02T03:58:44;18.98;;;7.55;;
9364;SDS011;4722;49.340;9.800;2024-03-02T04:01:10;15.80;;;7.82;;
9364;SDS011;4722;49.340;9.800;2024-03-02T04:03:36;23.80;;;8.82;;
9364;SDS011;4722;49.340;9.800;2024-03-02T04:06:02;16.90;;;7.18;;
9364;SDS011;4722;49.340;9.800;2024-03-02T04:08:27;17.45;;;8.10;;
9364;SDS011;4722;49.340;9.800;2024-03-02T04:10:53;20.60;;;8.90;;
9364;SDS011;4722;49.340;9.800;2024-03-02T04:13:19;17.55;;;8.18;;
9364;SDS011;4722;49.340;9.800;2024-03-02T04:15:45;12.18;;;6.35;;
9364;SDS011;4722;49.340;9.800;2024-03-02T04:18:11;15.65;;;7.10;;
9364;SDS011;4722;49.340;9.800;2024-03-02T04:20:37;16.33;;;7.35;;
9364;SDS011;4722;49.340;9.800;2024-03-02T04:23:03;16.73;;;7.70;;
9364;SDS011;4722;49.340;9.800;2024-03-02T04:25:29;13.88;;;7.00;;
9364;SDS011;4722;49.340;9.800;2024-03-02T04:27:55;13.82;;;5.97;;
9364;SDS011;4722;49.340;9.800;2024-03-02T04:30:21;17.95;;;7.18;;
9364;SDS011;4722;49.340;9.800;2024-03-02T04:32:47;17.05;;;8.02;;
9364;SDS011;4722;49.340;9.800;2024-03-02T04:35:14;13.80;;;6.63;;
9364;SDS011;4722;49.340;9.800;2024-03-02T04:37:40;17.50;;;6.85;;
9364;SDS011;4722;49.340;9.800;2024-03-02T04:40:06;13.25;;;5.70;;
9364;SDS011;4722;49.340;9.800;2024-03-02T04:42:35;9.90;;;4.97;;
9364;SDS011;4722;49.340;9.800;2024-03-02T04:45:01;11.35;;;5.55;;
9364;SDS011;4722;49.340;9.800;2024-03-02T04:47:27;9.60;;;4.30;;
9364;SDS011;4722;49.340;9.800;2024-03-02T04:49:53;11.23;;;5.10;;
9364;SDS011;4722;49.340;9.800;2024-03-02T04:52:19;10.85;;;5.78;;
9364;SDS011;4722;49.340;9.800;2024-03-02T04:54:45;15.80;;;4.93;;
9364;SDS011;4722;49.340;9.800;2024-03-02T04:57:30;10.80;;;5.68;;
9364;SDS011;4722;49.340;9.800;2024-03-02T04:59:56;10.85;;;5.88;;
9364;SDS011;4722;49.340;9.800;2024-03-02T05:02:21;11.27;;;5.35;;
9364;SDS011;4722;49.340;9.800;2024-03-02T05:04:47;9.68;;;4.85;;
9364;SDS011;4722;49.340;9.800;2024-03-02T05:07:14;12.77;;;5.72;;
9364;SDS011;4722;49.340;9.800;2024-03-02T05:09:40;14.10;;;5.65;;
9364;SDS011;4722;49.340;9.800;2024-03-02T05:12:06;15.20;;;6.93;;
9364;SDS011;4722;49.340;9.800;2024-03-02T05:14:48;13.73;;;6.20;;
9364;SDS011;4722;49.340;9.800;2024-03-02T05:17:14;15.40;;;6.07;;
9364;SDS011;4722;49.340;9.800;2024-03-02T05:19:40;11.25;;;5.30;;
9364;SDS011;4722;49.340;9.800;2024-03-02T05:22:06;10.25;;;5.05;;
9364;SDS011;4722;49.340;9.800;2024-03-02T05:24:32;12.00;;;5.93;;
9364;SDS011;4722;49.340;9.800;2024-03-02T05:26:58;12.65;;;5.60;;
9364;SDS011;4722;49.340;9.800;2024-03-02T05:29:24;12.40;;;5.78;;
9364;SDS011;4722;49.340;9.800;2024-03-02T05:31:50;11.68;;;5.65;;
9364;SDS011;4722;49.340;9.800;2024-03-02T05:34:16;11.88;;;6.03;;
9364;SDS011;4722;49.340;9.800;2024-03-02T05:36:43;10.82;;;5.40;;
9364;SDS011;4722;49.340;9.800;2024-03-02T05:39:09;9.70;;;5.72;;
9364;SDS011;4722;49.340;9.800;2024-03-02T05:41:35;16.27;;;6.03;;
9364;SDS011;4722;49.340;9.800;2024-03-02T05:44:03;13.73;;;6.80;;
9364;SDS011;4722;49.340;9.800;2024-03-02T05:46:29;13.95;;;5.82;;
9364;SDS011;4722;49.340;9.800;2024-03-02T05:48:54;14.73;;;7.22;;
9364;SDS011;4722;49.340;9.800;2024-03-02T05:51:21;16.10;;;6.28;;
9364;SDS011;4722;49.340;9.800;2024-03-02T05:53:46;16.67;;;7.63;;
9364;SDS011;4722;49.340;9.800;2024-03-02T05:56:12;16.80;;;7.93;;
9364;SDS011;4722;49.340;9.800;2024-03-02T05:58:38;17.38;;;7.15;;
9364;SDS011;4722;49.340;9.800;2024-03-02T06:01:33;14.80;;;6.55;;
9364;SDS011;4722;49.340;9.800;2024-03-02T06:03:59;11.45;;;6.13;;
9364;SDS011;4722;49.340;9.800;2024-03-02T06:06:25;20.42;;;7.82;;
9364;SDS011;4722;49.340;9.800;2024-03-02T06:08:52;15.20;;;7.85;;
9364;SDS011;4722;49.340;9.800;2024-03-02T06:11:19;18.92;;;8.60;;
9364;SDS011;4722;49.340;9.800;2024-03-02T06:13:45;20.88;;;8.43;;
9364;SDS011;4722;49.340;9.800;2024-03-02T06:16:11;14.63;;;6.25;;
9364;SDS011;4722;49.340;9.800;2024-03-02T06:18:37;16.58;;;7.38;;
9364;SDS011;4722;49.340;9.800;2024-03-02T06:21:03;20.17;;;9.70;;
9364;SDS011;4722;49.340;9.800;2024-03-02T06:23:29;15.48;;;7.68;;
9364;SDS011;4722;49.340;9.800;2024-03-02T06:25:55;25.88;;;9.82;;
9364;SDS011;4722;49.340;9.800;2024-03-02T06:28:21;19.25;;;9.20;;
9364;SDS011;4722;49.340;9.800;2024-03-02T06:31:00;18.23;;;7.20;;
9364;SDS011;4722;49.340;9.800;2024-03-02T06:33:26;18.08;;;8.48;;
9364;SDS011;4722;49.340;9.800;2024-03-02T06:35:53;17.02;;;9.13;;
9364;SDS011;4722;49.340;9.800;2024-03-02T06:38:19;19.08;;;8.50;;
9364;SDS011;4722;49.340;9.800;2024-03-02T06:40:45;18.63;;;7.85;;
9364;SDS011;4722;49.340;9.800;2024-03-02T06:43:11;21.08;;;8.75;;
9364;SDS011;4722;49.340;9.800;2024-03-02T06:45:37;26.60;;;9.70;;
9364;SDS011;4722;49.340;9.800;2024-03-02T06:48:03;17.88;;;6.82;;
9364;SDS011;4722;49.340;9.800;2024-03-02T06:50:29;26.33;;;8.65;;
9364;SDS011;4722;49.340;9.800;2024-03-02T06:52:55;26.80;;;8.73;;
9364;SDS011;4722;49.340;9.800;2024-03-02T06:55:21;22.90;;;8.95;;
9364;SDS011;4722;49.340;9.800;2024-03-02T06:57:47;20.30;;;7.85;;
9364;SDS011;4722;49.340;9.800;2024-03-02T07:00:13;23.20;;;8.40;;
9364;SDS011;4722;49.340;9.800;2024-03-02T07:02:39;16.88;;;9.07;;
9364;SDS011;4722;49.340;9.800;2024-03-02T07:05:09;23.23;;;9.48;;
9364;SDS011;4722;49.340;9.800;2024-03-02T07:07:36;29.17;;;9.70;;
9364;SDS011;4722;49.340;9.800;2024-03-02T07:10:05;17.73;;;7.22;;
9364;SDS011;4722;49.340;9.800;2024-03-02T07:12:32;31.52;;;11.43;;
9364;SDS011;4722;49.340;9.800;2024-03-02T07:14:58;23.17;;;9.63;;
9364;SDS011;4722;49.340;9.800;2024-03-02T07:17:30;16.25;;;7.50;;
9364;SDS011;4722;49.340;9.800;2024-03-02T07:19:56;19.40;;;8.73;;
9364;SDS011;4722;49.340;9.800;2024-03-02T07:22:22;23.15;;;8.95;;
9364;SDS011;4722;49.340;9.800;2024-03-02T07:24:48;26.45;;;9.88;;
9364;SDS011;4722;49.340;9.800;2024-03-02T07:27:14;24.55;;;8.45;;
9364;SDS011;4722;49.340;9.800;2024-03-02T07:29:41;23.45;;;8.18;;
9364;SDS011;4722;49.340;9.800;2024-03-02T07:32:08;27.00;;;10.90;;
9364;SDS011;4722;49.340;9.800;2024-03-02T07:34:34;28.48;;;10.98;;
9364;SDS011;4722;49.340;9.800;2024-03-02T07:37:00;30.15;;;10.32;;
9364;SDS011;4722;49.340;9.800;2024-03-02T07:39:26;25.88;;;10.15;;
9364;SDS011;4722;49.340;9.800;2024-03-02T07:41:52;23.58;;;9.50;;
9364;SDS011;4722;49.340;9.800;2024-03-02T07:44:18;25.25;;;10.60;;
9364;SDS011;4722;49.340;9.800;2024-03-02T07:46:45;25.35;;;10.35;;
9364;SDS011;4722;49.340;9.800;2024-03-02T07:49:17;21.83;;;9.70;;
9364;SDS011;4722;49.340;9.800;2024-03-02T07:51:43;23.73;;;9.95;;
9364;SDS011;4722;49.340;9.800;2024-03-02T07:54:09;20.52;;;9.27;;
9364;SDS011;4722;49.340;9.800;2024-03-02T07:56:35;20.77;;;9.02;;
9364;SDS011;4722;49.340;9.800;2024-03-02T07:59:01;24.92;;;9.55;;
9364;SDS011;4722;49.340;9.800;2024-03-02T08:01:28;25.65;;;10.48;;
9364;SDS011;4722;49.340;9.800;2024-03-02T08:03:57;21.58;;;9.63;;
9364;SDS011;4722;49.340;9.800;2024-03-02T08:06:27;27.40;;;9.02;;
9364;SDS011;4722;49.340;9.800;2024-03-02T08:08:56;25.15;;;9.77;;
9364;SDS011;4722;49.340;9.800;2024-03-02T08:11:22;28.50;;;9.95;;
9364;SDS011;4722;49.340;9.800;2024-03-02T08:13:48;27.13;;;10.90;;
9364;SDS011;4722;49.340;9.800;2024-03-02T08:16:17;21.27;;;8.75;;
9364;SDS011;4722;49.340;9.800;2024-03-02T08:18:45;26.25;;;10.07;;
9364;SDS011;4722;49.340;9.800;2024-03-02T08:21:11;25.23;;;9.18;;
9364;SDS011;4722;49.340;9.800;2024-03-02T08:23:37;21.23;;;9.43;;
9364;SDS011;4722;49.340;9.800;2024-03-02T08:26:05;23.80;;;10.55;;
9364;SDS011;4722;49.340;9.800;2024-03-02T08:28:31;32.35;;;12.02;;
9364;SDS011;4722;49.340;9.800;2024-03-02T08:30:58;23.92;;;10.32;;
9364;SDS011;4722;49.340;9.800;2024-03-02T08:33:24;29.27;;;12.90;;
9364;SDS011;4722;49.340;9.800;2024-03-02T08:35:50;26.70;;;10.88;;
9364;SDS011;4722;49.340;9.800;2024-03-02T08:38:16;34.10;;;13.60;;
9364;SDS011;4722;49.340;9.800;2024-03-02T08:40:42;22.60;;;9.52;;
9364;SDS011;4722;49.340;9.800;2024-03-02T08:43:08;19.58;;;8.50;;
9364;SDS011;4722;49.340;9.800;2024-03-02T08:45:34;20.70;;;8.60;;
9364;SDS011;4722;49.340;9.800;2024-03-02T08:48:00;20.13;;;8.98;;
9364;SDS011;4722;49.340;9.800;2024-03-02T08:50:26;18.83;;;8.82;;
9364;SDS011;4722;49.340;9.800;2024-03-02T08:52:52;21.60;;;9.77;;
9364;SDS011;4722;49.340;9.800;2024-03-02T08:55:18;20.92;;;10.48;;
9364;SDS011;4722;49.340;9.800;2024-03-02T08:57:44;20.85;;;9.38;;
9364;SDS011;4722;49.340;9.800;2024-03-02T09:00:10;20.70;;;10.77;;
9364;SDS011;4722;49.340;9.800;2024-03-02T09:02:36;26.20;;;11.20;;
9364;SDS011;4722;49.340;9.800;2024-03-02T09:05:02;25.58;;;10.90;;
9364;SDS011;4722;49.340;9.800;2024-03-02T09:07:28;24.67;;;11.93;;
9364;SDS011;4722;49.340;9.800;2024-03-02T09:09:54;24.05;;;9.27;;
9364;SDS011;4722;49.340;9.800;2024-03-02T09:12:20;21.13;;;9.40;;
9364;SDS011;4722;49.340;9.800;2024-03-02T09:14:46;17.80;;;9.38;;
9364;SDS011;4722;49.340;9.800;2024-03-02T09:17:12;19.73;;;9.07;;
9364;SDS011;4722;49.340;9.800;2024-03-02T09:19:39;17.58;;;8.05;;
9364;SDS011;4722;49.340;9.800;2024-03-02T09:22:04;16.20;;;7.15;;
9364;SDS011;4722;49.340;9.800;2024-03-02T09:24:30;19.20;;;9.70;;
9364;SDS011;4722;49.340;9.800;2024-03-02T09:26:58;19.80;;;8.82;;
9364;SDS011;4722;49.340;9.800;2024-03-02T09:29:24;14.27;;;6.15;;
9364;SDS011;4722;49.340;9.800;2024-03-02T09:31:50;11.80;;;5.15;;
9364;SDS011;4722;49.340;9.800;2024-03-02T09:34:16;9.32;;;4.40;;
9364;SDS011;4722;49.340;9.800;2024-03-02T09:36:42;14.73;;;6.15;;
9364;SDS011;4722;49.340;9.800;2024-03-02T09:39:08;14.68;;;6.65;;
9364;SDS011;4722;49.340;9.800;2024-03-02T09:41:34;11.40;;;5.50;;
9364;SDS011;4722;49.340;9.800;2024-03-02T09:44:01;11.88;;;5.75;;
9364;SDS011;4722;49.340;9.800;2024-03-02T09:46:27;7.55;;;4.05;;
9364;SDS011;4722;49.340;9.800;2024-03-02T09:48:53;13.00;;;5.13;;
9364;SDS011;4722;49.340;9.800;2024-03-02T09:51:19;10.85;;;5.50;;
9364;SDS011;4722;49.340;9.800;2024-03-02T09:53:45;8.57;;;4.22;;
9364;SDS011;4722;49.340;9.800;2024-03-02T09:56:11;10.13;;;4.63;;
9364;SDS011;4722;49.340;9.800;2024-03-02T09:58:38;11.23;;;4.43;;
9364;SDS011;4722;49.340;9.800;2024-03-02T10:01:07;9.70;;;4.07;;
9364;SDS011;4722;49.340;9.800;2024-03-02T10:03:35;8.20;;;3.72;;
9364;SDS011;4722;49.340;9.800;2024-03-02T10:08:47;9.38;;;3.42;;
9364;SDS011;4722;49.340;9.800;2024-03-02T10:11:25;9.10;;;3.40;;
9364;SDS011;4722;49.340;9.800;2024-03-02T10:14:05;8.90;;;4.47;;
9364;SDS011;4722;49.340;9.800;2024-03-02T10:16:38;10.73;;;4.80;;
9364;SDS011;4722;49.340;9.800;2024-03-02T10:19:23;19.45;;;6.38;;
9364;SDS011;4722;49.340;9.800;2024-03-02T10:21:52;13.65;;;6.05;;
9364;SDS011;4722;49.340;9.800;2024-03-02T10:24:18;10.95;;;3.97;;
9364;SDS011;4722;49.340;9.800;2024-03-02T10:26:44;10.63;;;3.97;;
9364;SDS011;4722;49.340;9.800;2024-03-02T10:29:10;11.43;;;4.90;;
9364;SDS011;4722;49.340;9.800;2024-03-02T10:31:40;11.52;;;4.53;;
9364;SDS011;4722;49.340;9.800;2024-03-02T10:34:06;8.68;;;4.35;;
9364;SDS011;4722;49.340;9.800;2024-03-02T10:36:33;7.68;;;4.03;;
9364;SDS011;4722;49.340;9.800;2024-03-02T10:39:03;9.02;;;4.07;;
9364;SDS011;4722;49.340;9.800;2024-03-02T10:41:30;7.80;;;3.53;;
9364;SDS011;4722;49.340;9.800;2024-03-02T10:43:58;7.78;;;3.50;;
9364;SDS011;4722;49.340;9.800;2024-03-02T10:46:28;5.90;;;2.95;;
9364;SDS011;4722;49.340;9.800;2024-03-02T10:48:55;9.32;;;4.22;;
9364;SDS011;4722;49.340;9.800;2024-03-02T10:51:23;6.88;;;3.78;;
9364;SDS011;4722;49.340;9.800;2024-03-02T10:53:49;8.10;;;3.92;;
9364;SDS011;4722;49.340;9.800;2024-03-02T10:56:16;5.72;;;3.30;;
9364;SDS011;4722;49.340;9.800;2024-03-02T10:58:43;8.75;;;3.70;;
9364;SDS011;4722;49.340;9.800;2024-03-02T11:01:10;9.07;;;3.58;;
9364;SDS011;4722;49.340;9.800;2024-03-02T11:03:36;6.80;;;2.53;;
9364;SDS011;4722;49.340;9.800;2024-03-02T11:06:03;6.88;;;3.35;;
9364;SDS011;4722;49.340;9.800;2024-03-02T11:08:31;5.80;;;2.72;;
9364;SDS011;4722;49.340;9.800;2024-03-02T11:11:02;5.50;;;2.20;;
9364;SDS011;4722;49.340;9.800;2024-03-02T11:13:31;5.38;;;2.53;;
9364;SDS011;4722;49.340;9.800;2024-03-02T11:15:59;5.05;;;2.35;;
9364;SDS011;4722;49.340;9.800;2024-03-02T11:18:28;4.63;;;1.73;;
9364;SDS011;4722;49.340;9.800;2024-03-02T11:20:54;4.50;;;2.20;;
9364;SDS011;4722;49.340;9.800;2024-03-02T11:23:31;3.22;;;1.88;;
9364;SDS011;4722;49.340;9.800;2024-03-02T11:28:43;4.30;;;2.00;;
9364;SDS011;4722;49.340;9.800;2024-03-02T11:31:09;4.40;;;1.60;;
9364;SDS011;4722;49.340;9.800;2024-03-02T11:33:35;3.35;;;1.25;;
9364;SDS011;4722;49.340;9.800;2024-03-02T11:36:01;4.15;;;1.38;;
9364;SDS011;4722;49.340;9.800;2024-03-02T11:38:30;9.00;;;1.65;;
9364;SDS011;4722;49.340;9.800;2024-03-02T11:40:57;4.28;;;1.45;;
9364;SDS011;4722;49.340;9.800;2024-03-02T11:43:25;3.78;;;1.30;;
9364;SDS011;4722;49.340;9.800;2024-03-02T11:45:56;2.60;;;1.30;;
9364;SDS011;4722;49.340;9.800;2024-03-02T11:48:24;2.42;;;1.17;;
9364;SDS011;4722;49.340;9.800;2024-03-02T11:50:50;4.10;;;1.17;;
9364;SDS011;4722;49.340;9.800;2024-03-02T11:53:16;3.38;;;1.35;;
9364;SDS011;4722;49.340;9.800;2024-03-02T11:55:43;2.75;;;1.25;;
9364;SDS011;4722;49.340;9.800;2024-03-02T11:58:13;2.20;;;1.20;;
9364;SDS011;4722;49.340;9.800;2024-03-02T12:00:39;2.65;;;1.00;;
9364;SDS011;4722;49.340;9.800;2024-03-02T12:03:08;1.95;;;0.90;;
9364;SDS011;4722;49.340;9.800;2024-03-02T12:05:35;2.55;;;0.90;;
9364;SDS011;4722;49.340;9.800;2024-03-02T12:08:02;1.13;;;0.30;;
9364;SDS011;4722;49.340;9.800;2024-03-02T12:10:28;2.88;;;0.60;;
9364;SDS011;4722;49.340;9.800;2024-03-02T12:13:04;1.92;;;0.55;;
9364;SDS011;4722;49.340;9.800;2024-03-02T12:15:37;0.82;;;0.40;;
9364;SDS011;4722;49.340;9.800;2024-03-02T12:18:03;1.38;;;0.57;;
9364;SDS011;4722;49.340;9.800;2024-03-02T12:20:30;1.25;;;0.40;;
9364;SDS011;4722;49.340;9.800;2024-03-02T12:23:00;5.57;;;0.60;;
9364;SDS011;4722;49.340;9.800;2024-03-02T12:25:27;2.42;;;0.70;;
9364;SDS011;4722;49.340;9.800;2024-03-02T12:27:54;1.10;;;0.40;;
9364;SDS011;4722;49.340;9.800;2024-03-02T12:30:20;0.68;;;0.30;;
9364;SDS011;4722;49.340;9.800;2024-03-02T12:32:47;0.73;;;0.43;;
9364;SDS011;4722;49.340;9.800;2024-03-02T12:35:13;1.48;;;0.45;;
9364;SDS011;4722;49.340;9.800;2024-03-02T12:37:46;0.70;;;0.40;;
9364;SDS011;4722;49.340;9.800;2024-03-02T12:40:12;1.15;;;0.50;;
9364;SDS011;4722;49.340;9.800;2024-03-02T12:42:39;1.58;;;0.32;;
9364;SDS011;4722;49.340;9.800;2024-03-02T12:45:08;0.85;;;0.68;;
9364;SDS011;4722;49.340;9.800;2024-03-02T12:47:34;0.50;;;0.20;;
9364;SDS011;4722;49.340;9.800;2024-03-02T12:50:00;1.85;;;0.45;;
9364;SDS011;4722;49.340;9.800;2024-03-02T12:52:27;0.98;;;0.25;;
9364;SDS011;4722;49.340;9.800;2024-03-02T12:54:53;0.82;;;0.30;;
9364;SDS011;4722;49.340;9.800;2024-03-02T12:57:25;0.63;;;0.30;;
9364;SDS011;4722;49.340;9.800;2024-03-02T12:59:52;0.93;;;0.43;;
9364;SDS011;4722;49.340;9.800;2024-03-02T13:02:18;1.95;;;0.45;;
9364;SDS011;4722;49.340;9.800;2024-03-02T13:04:44;1.83;;;0.50;;
9364;SDS011;4722;49.340;9.800;2024-03-02T13:07:10;0.90;;;0.30;;
9364;SDS011;4722;49.340;9.800;2024-03-02T13:09:38;0.77;;;0.35;;
9364;SDS011;4722;49.340;9.800;2024-03-02T13:12:05;0.77;;;0.43;;
9364;SDS011;4722;49.340;9.800;2024-03-02T13:14:37;1.73;;;0.43;;
9364;SDS011;4722;49.340;9.800;2024-03-02T13:17:03;1.25;;;0.22;;
9364;SDS011;4722;49.340;9.800;2024-03-02T13:19:30;0.90;;;0.30;;
9364;SDS011;4722;49.340;9.800;2024-03-02T13:21:57;0.57;;;0.20;;
9364;SDS011;4722;49.340;9.800;2024-03-02T13:24:23;0.82;;;0.25;;
9364;SDS011;4722;49.340;9.800;2024-03-02T13:26:56;0.60;;;0.20;;
9364;SDS011;4722;49.340;9.800;2024-03-02T13:29:23;0.30;;;0.25;;
9364;SDS011;4722;49.340;9.800;2024-03-02T13:31:49;0.38;;;0.20;;
9364;SDS011;4722;49.340;9.800;2024-03-02T13:34:15;0.68;;;0.20;;
9364;SDS011;4722;49.340;9.800;2024-03-02T13:36:41;1.00;;;0.57;;
9364;SDS011;4722;49.340;9.800;2024-03-02T13:39:07;1.38;;;0.30;;
9364;SDS011;4722;49.340;9.800;2024-03-02T13:41:36;1.15;;;0.30;;
9364;SDS011;4722;49.340;9.800;2024-03-02T13:44:02;1.58;;;0.63;;
9364;SDS011;4722;49.340;9.800;2024-03-02T13:46:28;0.63;;;0.10;;
9364;SDS011;4722;49.340;9.800;2024-03-02T13:48:54;1.73;;;0.65;;
9364;SDS011;4722;49.340;9.800;2024-03-02T13:51:21;1.48;;;0.60;;
9364;SDS011;4722;49.340;9.800;2024-03-02T13:53:47;1.42;;;0.50;;
9364;SDS011;4722;49.340;9.800;2024-03-02T13:56:13;1.00;;;0.60;;
9364;SDS011;4722;49.340;9.800;2024-03-02T13:58:39;0.93;;;0.50;;
9364;SDS011;4722;49.340;9.800;2024-03-02T14:01:05;2.70;;;0.65;;
9364;SDS011;4722;49.340;9.800;2024-03-02T14:03:31;0.88;;;0.32;;
9364;SDS011;4722;49.340;9.800;2024-03-02T14:05:57;0.63;;;0.47;;
9364;SDS011;4722;49.340;9.800;2024-03-02T14:08:23;1.33;;;0.40;;
9364;SDS011;4722;49.340;9.800;2024-03-02T14:10:49;3.10;;;0.50;;
9364;SDS011;4722;49.340;9.800;2024-03-02T14:13:15;2.08;;;0.90;;
9364;SDS011;4722;49.340;9.800;2024-03-02T14:15:41;0.90;;;0.50;;
9364;SDS011;4722;49.340;9.800;2024-03-02T14:18:07;1.70;;;0.80;;
9364;SDS011;4722;49.340;9.800;2024-03-02T14:20:36;2.50;;;0.85;;
9364;SDS011;4722;49.340;9.800;2024-03-02T14:23:03;1.40;;;0.73;;
9364;SDS011;4722;49.340;9.800;2024-03-02T14:25:29;2.45;;;0.95;;
9364;SDS011;4722;49.340;9.800;2024-03-02T14:27:58;0.95;;;0.60;;
9364;SDS011;4722;49.340;9.800;2024-03-02T14:30:24;1.92;;;0.80;;
9364;SDS011;4722;49.340;9.800;2024-03-02T14:32:50;1.80;;;0.70;;
9364;SDS011;4722;49.340;9.800;2024-03-02T14:35:16;2.67;;;0.95;;
9364;SDS011;4722;49.340;9.800;2024-03-02T14:37:42;2.55;;;1.00;;
9364;SDS011;4722;49.340;9.800;2024-03-02T14:40:08;2.25;;;0.70;;
9364;SDS011;4722;49.340;9.800;2024-03-02T14:42:35;1.50;;;0.65;;
9364;SDS011;4722;49.340;9.800;2024-03-02T14:45:01;1.75;;;1.00;;
9364;SDS011;4722;49.340;9.800;2024-03-02T14:47:29;3.20;;;0.93;;
9364;SDS011;4722;49.340;9.800;2024-03-02T14:49:57;1.85;;;0.80;;
9364;SDS011;4722;49.340;9.800;2024-03-02T14:52:23;1.73;;;1.02;;
9364;SDS011;4722;49.340;9.800;2024-03-02T14:54:49;1.30;;;0.77;;
9364;SDS011;4722;49.340;9.800;2024-03-02T14:57:15;4.07;;;1.73;;
9364;SDS011;4722;49.340;9.800;2024-03-02T14:59:41;3.63;;;1.50;;
9364;SDS011;4722;49.340;9.800;2024-03-02T15:02:08;0.90;;;0.60;;
9364;SDS011;4722;49.340;9.800;2024-03-02T15:04:34;1.75;;;0.80;;
9364;SDS011;4722;49.340;9.800;2024-03-02T15:07:00;2.75;;;1.42;;
9364;SDS011;4722;49.340;9.800;2024-03-02T15:09:26;1.30;;;0.82;;